createdAt,value
2022-08-16T00:02:13.220Z,99.90
2022-08-16T00:05:57.630Z,99.90
2022-08-16T00:09:41.837Z,99.90
2022-08-16T00:13:24.601Z,99.90
2022-08-16T00:17:18.960Z,99.90
2022-08-16T00:21:03.865Z,99.90
2022-08-16T00:24:47.856Z,99.90
2022-08-16T00:28:34.205Z,99.90
2022-08-16T00:32:18.132Z,99.90
2022-08-16T00:36:01.136Z,99.90
2022-08-16T00:39:44.753Z,99.90
2022-08-16T00:43:42.685Z,99.90
2022-08-16T00:47:29.938Z,99.90
2022-08-16T00:51:16.130Z,99.90
2022-08-16T00:55:00.732Z,99.90
2022-08-16T00:58:47.917Z,99.90
2022-08-16T01:02:33.066Z,99.90
2022-08-16T01:06:39.737Z,99.90
2022-08-16T01:10:31.271Z,99.90
2022-08-16T01:14:30.156Z,99.90
2022-08-16T01:18:40.597Z,99.90
2022-08-16T01:22:49.641Z,99.90
2022-08-16T01:26:36.012Z,99.90
2022-08-16T01:30:21.955Z,99.90
2022-08-16T01:34:09.106Z,99.90
2022-08-16T01:38:19.860Z,99.90
2022-08-16T01:42:07.699Z,99.90
2022-08-16T01:45:58.259Z,99.90
2022-08-16T01:50:42.143Z,99.90
2022-08-16T01:53:55.366Z,99.90
2022-08-16T01:57:40.371Z,99.90
2022-08-16T02:01:36.862Z,99.90
2022-08-16T02:05:19.725Z,99.90
2022-08-16T02:09:12.045Z,99.90
2022-08-16T02:12:59.906Z,99.90
2022-08-16T02:16:44.753Z,99.90
2022-08-16T02:20:29.356Z,99.90
2022-08-16T02:24:30.746Z,99.90
2022-08-16T02:28:17.381Z,99.90
2022-08-16T02:32:03.589Z,99.90
2022-08-16T02:35:49.696Z,99.90
2022-08-16T02:39:37.932Z,99.90
2022-08-16T02:43:26.487Z,99.90
2022-08-16T02:47:09.714Z,99.90
2022-08-16T02:51:06.670Z,99.90
2022-08-16T02:54:55.402Z,99.90
2022-08-16T02:58:40.152Z,99.90
2022-08-16T03:02:31.748Z,99.90
2022-08-16T03:06:38.870Z,99.90
2022-08-16T03:10:21.951Z,99.90
2022-08-16T03:14:20.825Z,99.90
2022-08-16T03:18:04.411Z,99.90
2022-08-16T03:21:55.856Z,99.90
2022-08-16T03:25:43.302Z,99.90
2022-08-16T03:29:30.592Z,99.90
2022-08-16T03:33:13.877Z,99.90
2022-08-16T03:36:56.833Z,99.90
2022-08-16T03:40:40.164Z,99.90
2022-08-16T03:44:43.838Z,99.90
2022-08-16T03:48:37.007Z,99.90
2022-08-16T03:52:23.567Z,99.90
2022-08-16T03:56:07.774Z,99.90
2022-08-16T04:00:01.636Z,99.90
2022-08-16T04:03:50.636Z,99.90
2022-08-16T04:07:33.782Z,99.90
2022-08-16T04:11:17.120Z,99.90
2022-08-16T04:15:00.536Z,99.90
2022-08-16T04:18:44.892Z,99.90
2022-08-16T04:22:30.583Z,99.90
2022-08-16T04:26:16.824Z,99.90
2022-08-16T04:30:02.901Z,99.90
2022-08-16T04:33:51.031Z,99.90
2022-08-16T04:37:42.400Z,99.90
2022-08-16T04:41:32.292Z,99.90
2022-08-16T04:45:17.841Z,99.90
2022-08-16T04:49:00.653Z,99.90
2022-08-16T04:52:46.296Z,99.90
2022-08-16T04:56:29.213Z,99.90
2022-08-16T05:00:32.656Z,99.90
2022-08-16T05:04:19.834Z,99.90
2022-08-16T05:08:28.945Z,99.90
2022-08-16T05:12:10.987Z,99.90
2022-08-16T05:15:53.886Z,99.90
2022-08-16T05:19:37.224Z,99.90
2022-08-16T05:23:21.171Z,99.90
2022-08-16T05:27:11.611Z,99.90
2022-08-16T05:30:54.904Z,99.90
2022-08-16T05:34:37.641Z,99.90
2022-08-16T05:38:32.367Z,99.90
2022-08-16T05:42:19.723Z,99.90
2022-08-16T05:46:02.504Z,99.90
2022-08-16T05:50:06.580Z,99.90
2022-08-16T05:53:50.646Z,99.90
2022-08-16T05:57:34.511Z,99.90
2022-08-16T06:01:18.391Z,99.90
2022-08-16T06:05:01.070Z,99.90
2022-08-16T06:08:44.886Z,99.90
2022-08-16T06:12:31.067Z,99.90
2022-08-16T06:16:18.116Z,99.90
2022-08-16T06:20:01.307Z,99.90
2022-08-16T06:23:44.119Z,99.90
2022-08-16T06:27:39.630Z,99.90
2022-08-16T06:31:24.515Z,99.90
2022-08-16T06:35:09.084Z,99.90
2022-08-16T06:38:55.609Z,99.90
2022-08-16T06:42:47.715Z,99.90
2022-08-16T06:46:34.155Z,99.90
2022-08-16T06:50:22.017Z,99.90
2022-08-16T06:54:14.216Z,99.90
2022-08-16T06:57:58.605Z,99.90
2022-08-16T07:01:54.351Z,99.90
2022-08-16T07:05:42.005Z,99.90
2022-08-16T07:09:24.972Z,99.90
2022-08-16T07:13:19.677Z,99.90
2022-08-16T07:17:18.255Z,99.90
2022-08-16T07:21:02.509Z,99.90
2022-08-16T07:24:45.959Z,99.90
2022-08-16T07:28:30.112Z,99.90
2022-08-16T07:32:12.964Z,99.90
2022-08-16T07:35:56.091Z,99.90
2022-08-16T07:39:43.240Z,99.90
2022-08-16T07:43:29.050Z,99.90
2022-08-16T07:47:13.600Z,99.90
2022-08-16T07:50:59.206Z,99.90
2022-08-16T07:54:45.709Z,99.90
2022-08-16T07:58:33.673Z,99.90
2022-08-16T08:02:20.253Z,99.90
2022-08-16T08:06:03.987Z,99.90
2022-08-16T08:09:53.087Z,99.90
2022-08-16T08:13:42.239Z,99.90
2022-08-16T08:17:42.637Z,99.90
2022-08-16T08:21:27.577Z,99.90
2022-08-16T08:25:53.400Z,99.90
2022-08-16T08:29:37.352Z,99.90
2022-08-16T08:33:24.089Z,99.90
2022-08-16T08:37:06.734Z,99.90
2022-08-16T08:40:49.115Z,99.90
2022-08-16T08:44:31.859Z,99.90
2022-08-16T08:48:34.001Z,99.90
2022-08-16T08:52:34.459Z,99.90
2022-08-16T08:56:22.428Z,99.90
2022-08-16T09:00:13.063Z,99.90
2022-08-16T09:03:56.700Z,99.90
2022-08-16T09:08:01.376Z,99.90
2022-08-16T09:11:47.243Z,99.90
2022-08-16T09:15:33.644Z,99.90
2022-08-16T09:19:16.320Z,99.90
2022-08-16T09:23:18.470Z,99.90
2022-08-16T09:27:01.384Z,99.90
2022-08-16T09:30:45.170Z,99.90
2022-08-16T09:34:27.785Z,99.90
2022-08-16T09:38:12.294Z,99.90
2022-08-16T09:41:59.881Z,99.90
2022-08-16T09:45:43.169Z,99.90
2022-08-16T09:49:36.721Z,99.90
2022-08-16T09:53:23.133Z,99.90
2022-08-16T09:57:07.852Z,99.90
2022-08-16T10:00:55.590Z,99.90
2022-08-16T10:04:45.648Z,99.90
2022-08-16T10:09:04.403Z,99.90
2022-08-16T10:12:59.142Z,99.90
2022-08-16T10:16:43.706Z,99.90
2022-08-16T10:20:34.772Z,99.90
2022-08-16T10:24:28.467Z,99.90
2022-08-16T10:28:28.902Z,99.90
2022-08-16T10:32:11.941Z,99.90
2022-08-16T10:36:07.597Z,99.90
2022-08-16T10:39:50.421Z,99.90
2022-08-16T10:43:41.310Z,99.90
2022-08-16T10:47:23.813Z,99.90
2022-08-16T10:51:07.521Z,99.90
2022-08-16T10:59:32.631Z,99.90
2022-08-16T11:03:01.421Z,99.90
2022-08-16T11:07:06.545Z,99.90
2022-08-16T11:11:06.275Z,99.90
2022-08-16T11:19:03.840Z,99.90
2022-08-16T11:22:50.442Z,99.90
2022-08-16T11:26:33.552Z,99.90
2022-08-16T11:30:19.904Z,99.90
2022-08-16T11:34:03.151Z,99.90
2022-08-16T11:41:53.144Z,99.90
2022-08-16T11:45:37.375Z,99.90
2022-08-16T11:49:20.482Z,99.90
2022-08-16T11:53:05.570Z,99.90
2022-08-16T11:56:56.680Z,99.90
2022-08-16T12:00:51.015Z,99.90
2022-08-16T12:04:35.847Z,99.90
2022-08-16T12:08:18.894Z,99.90
2022-08-16T12:12:02.887Z,99.90
2022-08-16T12:15:47.573Z,99.90
2022-08-16T12:19:35.230Z,99.90
2022-08-16T12:23:18.887Z,99.90
2022-08-16T12:27:03.258Z,99.90
2022-08-16T12:30:47.975Z,99.90
2022-08-16T12:34:31.755Z,99.90
2022-08-16T12:38:41.426Z,99.90
2022-08-16T12:42:22.313Z,99.90
2022-08-16T12:46:18.481Z,99.80
2022-08-16T12:50:00.163Z,99.90
2022-08-16T12:53:42.943Z,99.70
2022-08-16T12:57:36.519Z,99.90
2022-08-16T13:01:23.049Z,98.30
2022-08-16T13:05:08.046Z,97.80
2022-08-16T13:08:51.887Z,97.20
2022-08-16T13:12:34.709Z,98.00
2022-08-16T13:16:27.217Z,96.10
2022-08-16T13:20:17.780Z,95.50
2022-08-16T13:24:00.515Z,94.10
2022-08-16T13:28:02.368Z,93.90
2022-08-16T13:31:47.964Z,94.20
2022-08-16T13:35:34.564Z,93.70
2022-08-16T13:39:17.944Z,94.80
2022-08-16T13:43:00.704Z,94.40
2022-08-16T13:46:47.371Z,94.30
2022-08-16T13:50:51.494Z,94.50
2022-08-16T13:54:33.991Z,95.10
2022-08-16T13:58:37.162Z,93.50
2022-08-16T14:02:20.635Z,93.30
2022-08-16T14:06:04.974Z,94.20
2022-08-16T14:09:48.432Z,94.70
2022-08-16T14:13:33.115Z,95.20
2022-08-16T14:17:16.953Z,95.30
2022-08-16T14:20:59.792Z,94.90
2022-08-16T14:24:45.286Z,94.80
2022-08-16T14:28:29.989Z,94.50
2022-08-16T14:32:32.586Z,94.90
2022-08-16T14:36:25.049Z,94.90
2022-08-16T14:40:15.521Z,95.10
2022-08-16T14:44:00.276Z,94.60
2022-08-16T14:47:43.405Z,94.60
2022-08-16T14:51:27.279Z,94.90
2022-08-16T14:55:11.897Z,95.10
2022-08-16T14:58:55.824Z,95.50
2022-08-16T15:02:40.400Z,94.40
2022-08-16T15:06:23.088Z,94.60
2022-08-16T15:10:21.517Z,94.50
2022-08-16T15:14:08.197Z,94.20
2022-08-16T15:17:53.954Z,93.80
2022-08-16T15:21:38.081Z,94.40
2022-08-16T15:25:29.347Z,93.60
2022-08-16T15:29:13.857Z,93.00
2022-08-16T15:33:00.973Z,93.90
2022-08-16T15:36:44.281Z,94.10
2022-08-16T15:40:35.077Z,93.70
2022-08-16T15:44:23.602Z,92.80
2022-08-16T15:48:07.102Z,92.90
2022-08-16T15:51:50.059Z,93.20
2022-08-16T15:55:37.015Z,92.60
2022-08-16T15:59:21.717Z,93.00
2022-08-16T16:03:09.014Z,92.70
2022-08-16T16:06:55.304Z,92.60
2022-08-16T16:10:39.439Z,93.40
2022-08-16T16:14:24.574Z,93.30
2022-08-16T16:18:12.241Z,93.10
2022-08-16T16:21:55.084Z,92.80
2022-08-16T16:25:39.002Z,92.90
2022-08-16T16:29:22.919Z,92.90
2022-08-16T16:33:06.685Z,93.10
2022-08-16T16:36:49.259Z,92.70
2022-08-16T16:40:35.327Z,93.00
2022-08-16T16:44:18.218Z,93.20
2022-08-16T16:48:17.463Z,93.20
2022-08-16T16:52:07.055Z,93.00
2022-08-16T16:55:52.167Z,93.10
2022-08-16T16:59:35.025Z,93.10
2022-08-16T17:03:19.801Z,93.00
2022-08-16T17:07:03.486Z,92.40
2022-08-16T17:10:49.462Z,92.80
2022-08-16T17:14:34.693Z,92.30
2022-08-16T17:19:15.057Z,92.70
2022-08-16T17:22:23.068Z,92.40
2022-08-16T17:26:10.556Z,92.20
2022-08-16T17:29:54.103Z,92.40
2022-08-16T17:33:54.480Z,92.60
2022-08-16T17:37:50.640Z,92.10
2022-08-16T17:41:34.680Z,92.30
2022-08-16T17:45:17.437Z,92.00
2022-08-16T17:49:01.573Z,92.90
2022-08-16T17:52:49.730Z,93.40
2022-08-16T17:56:32.898Z,93.70
2022-08-16T18:00:20.224Z,94.30
2022-08-16T18:04:09.608Z,94.60
2022-08-16T18:07:53.904Z,95.00
2022-08-16T18:11:41.094Z,95.60
2022-08-16T18:15:25.411Z,95.80
2022-08-16T18:19:09.688Z,96.10
2022-08-16T18:22:51.510Z,97.10
2022-08-16T18:26:34.453Z,97.40
2022-08-16T18:30:17.654Z,98.50
2022-08-16T18:34:01.324Z,99.30
2022-08-16T18:37:45.454Z,99.90
2022-08-16T18:41:30.319Z,99.90
2022-08-16T18:45:13.396Z,99.90
2022-08-16T18:48:56.170Z,99.90
2022-08-16T18:52:38.675Z,99.90
2022-08-16T18:56:22.529Z,99.90
2022-08-16T19:00:09.523Z,99.90
2022-08-16T19:03:52.374Z,99.90
2022-08-16T19:07:35.025Z,99.90
2022-08-16T19:11:23.049Z,99.90
2022-08-16T19:15:12.012Z,99.90
2022-08-16T19:18:56.996Z,99.90
2022-08-16T19:26:45.532Z,99.90
2022-08-16T19:30:29.642Z,99.90
2022-08-16T19:34:13.267Z,99.90
2022-08-16T19:37:56.011Z,99.90
2022-08-16T19:41:41.747Z,99.90
2022-08-16T19:45:24.645Z,99.90
2022-08-16T19:49:09.090Z,99.90
2022-08-16T19:52:52.932Z,99.90
2022-08-16T19:56:35.693Z,99.90
2022-08-16T20:00:19.175Z,99.90
2022-08-16T20:04:03.452Z,99.90
2022-08-16T20:07:47.773Z,99.90
2022-08-16T20:11:30.986Z,99.90
2022-08-16T20:15:15.826Z,99.90
2022-08-16T20:18:58.525Z,99.90
2022-08-16T20:22:53.458Z,99.90
2022-08-16T20:26:38.459Z,99.90
2022-08-16T20:30:21.870Z,99.90
2022-08-16T20:34:04.626Z,99.90
2022-08-16T20:37:47.596Z,99.90
2022-08-16T20:41:30.357Z,99.90
2022-08-16T20:45:14.291Z,99.90
2022-08-16T20:48:57.032Z,99.90
2022-08-16T20:52:39.865Z,99.90
2022-08-16T20:56:22.608Z,99.90
2022-08-16T21:00:06.790Z,99.90
2022-08-16T21:03:50.718Z,99.90
2022-08-16T21:07:33.371Z,99.90
2022-08-16T21:11:16.211Z,99.90
2022-08-16T21:14:58.769Z,99.90
2022-08-16T21:18:41.415Z,99.90
2022-08-16T21:22:25.316Z,99.90
2022-08-16T21:26:10.801Z,99.90
2022-08-16T21:29:54.738Z,99.90
2022-08-16T21:33:38.738Z,99.90
2022-08-16T21:37:21.140Z,99.90
2022-08-16T21:41:07.692Z,99.90
2022-08-16T21:44:50.591Z,99.90
2022-08-16T21:48:34.552Z,99.90
2022-08-16T21:52:26.327Z,99.90
2022-08-16T21:56:12.696Z,99.90
2022-08-16T22:00:00.159Z,99.90
2022-08-16T22:03:42.912Z,99.90
2022-08-16T22:07:25.529Z,99.90
2022-08-16T22:11:09.402Z,99.90
2022-08-16T22:14:53.766Z,99.90
2022-08-16T22:18:36.748Z,99.90
2022-08-16T22:22:19.524Z,99.90
2022-08-16T22:26:02.344Z,99.90
2022-08-16T22:29:44.921Z,99.90
2022-08-16T22:33:29.483Z,99.90
2022-08-16T22:52:58.262Z,99.90
2022-08-16T22:56:40.944Z,99.90
2022-08-16T23:00:27.218Z,99.90
2022-08-16T23:04:10.374Z,99.90
2022-08-16T23:07:54.628Z,99.90
2022-08-16T23:11:37.535Z,99.90
2022-08-16T23:15:23.119Z,99.90
2022-08-16T23:19:07.942Z,99.90
2022-08-16T23:23:20.582Z,99.90
2022-08-16T23:26:58.259Z,99.90
2022-08-16T23:30:42.574Z,99.90
2022-08-16T23:34:25.722Z,99.90
2022-08-16T23:38:38.131Z,99.90
2022-08-16T23:42:15.505Z,99.90
2022-08-16T23:46:19.684Z,99.90
2022-08-16T23:50:04.210Z,99.90
2022-08-16T23:53:47.444Z,99.90
2022-08-16T23:57:31.799Z,99.90
